Time;durP1;ratioP1;P1;durP2;ratioP2;P2;SDS_P1;SDS_P2;PMS_P1;PMS_P2;Temp;Humidity;BMP_temperature;BMP_pressure;BME280_temperature;BME280_humidity;BME280_pressure;Samples;Min_cycle;Max_cycle;Signal;HPM_P1;HPM_P2
2023/04/23 00:00:53;;;;;;;;;;;;;;;13.48;47.77;92175.97;2060304;69;20062;-80
2023/04/23 00:03:20;;;;;;;;;;;;;;;13.37;47.42;92169.13;2059862;69;20073;-78
2023/04/23 00:05:46;;;;;;;;;;;;;;;13.60;47.25;92172.91;2059550;69;20599;-81
2023/04/23 00:08:13;;;;;;;;;;;;;;;13.42;48.74;92170.03;2059528;69;20141;-80
2023/04/23 00:14:11;;;;;;;;;;;;;;;13.53;48.83;92165.56;2058375;69;20045;-79
2023/04/23 00:16:37;;;;;;;;;;;;;;;13.68;49.34;92167.59;2053412;69;20038;-78
2023/04/23 00:19:03;;;;;;;;;;;;;;;13.50;49.95;92170.38;2058275;69;20046;-78
2023/04/23 00:21:28;;;;;;;;;;;;;;;13.50;49.95;92166.84;2058253;69;20097;-75
2023/04/23 00:23:54;;;;;;;;;;;;;;;13.55;51.34;92171.28;2058099;69;20050;-78
2023/04/23 00:26:20;;;;;;;;;;;;;;;13.66;50.49;92173.16;2058021;69;20070;-77
2023/04/23 00:28:45;;;;;;;;;;;;;;;13.51;50.30;92168.28;2058136;69;20050;-80
2023/04/23 00:31:11;;;;;;;;;;;;;;;13.40;50.91;92169.97;2050492;69;20057;-79
2023/04/23 00:33:40;;;;;;;;;;;;;;;13.43;50.49;92163.75;2058469;69;20057;-79
2023/04/23 00:36:10;;;;;;;;;;;;;;;13.43;51.41;92160.22;2056126;69;20050;-77
2023/04/23 00:38:40;;;;;;;;;;;;;;;13.30;52.14;92161.06;2058955;69;20050;-79
2023/04/23 00:41:06;;;;;;;;;;;;;;;13.38;51.66;92158.59;2057908;69;20057;-79
2023/04/23 00:43:35;;;;;;;;;;;;;;;13.37;51.37;92155.00;2052015;69;20137;-80
2023/04/23 00:46:01;;;;;;;;;;;;;;;13.42;51.21;92161.56;2058235;69;20546;-81
2023/04/23 00:48:32;;;;;;;;;;;;;;;13.45;51.34;92166.66;2058138;69;20078;-81
2023/04/23 00:50:59;;;;;;;;;;;;;;;12.89;53.05;92167.78;2058089;69;20085;-80
2023/04/23 00:53:26;;;;;;;;;;;;;;;13.15;51.54;92165.38;2038799;69;20051;-76
2023/04/23 00:55:52;;;;;;;;;;;;;;;13.13;53.53;92163.16;2038635;69;20422;-74
2023/04/23 00:58:19;;;;;;;;;;;;;;;13.13;53.12;92160.34;2058036;69;20115;-77
2023/04/23 01:00:47;;;;;;;;;;;;;;;13.09;53.16;92165.81;2058138;69;20050;-81
2023/04/23 01:03:17;;;;;;;;;;;;;;;13.11;52.47;92157.44;2050349;69;20085;-79
2023/04/23 01:05:43;;;;;;;;;;;;;;;13.25;52.47;92160.16;2058059;69;20054;-79
2023/04/23 01:08:13;;;;;;;;;;;;;;;13.19;53.46;92163.44;2058137;69;20468;-81
2023/04/23 01:10:39;;;;;;;;;;;;;;;13.04;52.94;92155.00;2042886;69;20084;-81
2023/04/23 01:13:06;;;;;;;;;;;;;;;13.03;53.60;92157.09;2058082;69;20050;-80
2023/04/23 01:15:32;;;;;;;;;;;;;;;13.03;54.31;92156.38;2057965;69;20149;-81
2023/04/23 01:17:58;;;;;;;;;;;;;;;13.11;53.48;92151.78;2058102;69;20149;-80
2023/04/23 01:20:23;;;;;;;;;;;;;;;13.22;52.53;92165.00;2036119;69;20057;-81
2023/04/23 01:22:49;;;;;;;;;;;;;;;13.08;53.09;92160.81;2058162;69;20455;-80
2023/04/23 01:25:16;;;;;;;;;;;;;;;13.00;53.93;92152.72;2057990;69;20054;-78
2023/04/23 01:27:42;;;;;;;;;;;;;;;13.00;53.97;92157.63;2038473;69;20053;-74
2023/04/23 01:30:08;;;;;;;;;;;;;;;13.02;53.21;92157.75;2058236;69;20609;-80
2023/04/23 01:32:34;;;;;;;;;;;;;;;12.89;54.08;92153.66;2058114;69;20231;-80
2023/04/23 01:35:01;;;;;;;;;;;;;;;12.93;54.52;92148.91;2058077;69;20057;-80
2023/04/23 01:37:29;;;;;;;;;;;;;;;12.89;54.90;92143.06;2058091;69;20145;-80
2023/04/23 01:39:56;;;;;;;;;;;;;;;12.85;54.70;92151.38;2058189;69;20108;-80
2023/04/23 01:42:26;;;;;;;;;;;;;;;12.77;54.75;92150.28;2058433;69;20054;-78
2023/04/23 01:44:52;;;;;;;;;;;;;;;12.81;54.83;92153.28;2060012;69;20050;-76
2023/04/23 01:47:29;;;;;;;;;;;;;;;12.85;54.75;92148.53;2040029;69;20042;-80
2023/04/23 01:49:59;;;;;;;;;;;;;;;12.88;52.60;92152.19;2041325;69;20054;-80
2023/04/23 01:52:28;;;;;;;;;;;;;;;12.97;53.27;92149.09;2058558;69;20501;-80
2023/04/23 01:58:24;;;;;;;;;;;;;;;12.66;55.59;92155.50;2057976;69;20052;-80
2023/04/23 02:00:52;;;;;;;;;;;;;;;12.71;55.36;92156.41;2038781;69;20204;-80
2023/04/23 02:03:18;;;;;;;;;;;;;;;12.65;55.72;92154.03;2057887;69;20054;-80
2023/04/23 02:05:45;;;;;;;;;;;;;;;12.58;55.80;92157.94;2038641;69;20098;-80
2023/04/23 02:08:11;;;;;;;;;;;;;;;12.55;56.09;92156.41;2038808;70;20106;-80
2023/04/23 02:14:06;;;;;;;;;;;;;;;12.55;55.80;92158.50;2038434;70;20055;-80
2023/04/23 02:16:31;;;;;;;;;;;;;;;12.58;56.15;92155.13;2038614;70;20063;-77
2023/04/23 02:18:57;;;;;;;;;;;;;;;12.55;55.77;92159.22;2038740;70;20048;-79
2023/04/23 02:21:23;;;;;;;;;;;;;;;12.52;56.69;92149.22;2035463;70;20052;-75
2023/04/23 02:23:50;;;;;;;;;;;;;;;12.52;56.49;92151.31;2038718;70;20044;-81
2023/04/23 02:26:15;;;;;;;;;;;;;;;12.49;56.16;92149.75;2038828;70;20063;-81
2023/04/23 02:28:41;;;;;;;;;;;;;;;12.67;55.59;92148.47;2054679;69;20568;-81
2023/04/23 02:31:07;;;;;;;;;;;;;;;12.73;55.27;92143.09;2039223;70;20120;-72
2023/04/23 02:33:34;;;;;;;;;;;;;;;12.58;54.79;92143.09;2035765;70;20055;-81
2023/04/23 02:35:59;;;;;;;;;;;;;;;12.53;55.31;92150.66;2039266;70;20174;-79
2023/04/23 02:38:25;;;;;;;;;;;;;;;12.61;54.80;92150.31;2039243;70;20206;-79
2023/04/23 02:40:50;;;;;;;;;;;;;;;12.62;55.79;92143.28;2039307;70;20060;-80
2023/04/23 02:43:17;;;;;;;;;;;;;;;12.64;55.65;92146.91;2035876;70;20060;-78
2023/04/23 02:45:43;;;;;;;;;;;;;;;12.75;54.84;92150.94;2039154;70;20055;-80
2023/04/23 02:48:09;;;;;;;;;;;;;;;12.79;54.77;92156.75;2039103;70;20160;-78
2023/04/23 02:50:37;;;;;;;;;;;;;;;12.71;56.90;92151.47;2036028;70;20056;-78
2023/04/23 02:53:04;;;;;;;;;;;;;;;12.80;55.81;92160.31;2036047;70;20059;-81
2023/04/23 02:55:30;;;;;;;;;;;;;;;12.75;55.92;92153.03;2054683;69;20058;-81
2023/04/23 02:57:57;;;;;;;;;;;;;;;12.78;56.14;92155.28;2039289;69;20156;-80
2023/04/23 03:00:23;;;;;;;;;;;;;;;12.53;55.62;92156.31;2039225;69;20153;-81
2023/04/23 03:02:51;;;;;;;;;;;;;;;12.65;55.90;92162.50;2035569;70;20126;-73
2023/04/23 03:05:16;;;;;;;;;;;;;;;12.69;55.91;92157.06;2035844;70;20135;-80
2023/04/23 03:07:41;;;;;;;;;;;;;;;12.66;56.98;92169.63;2039142;70;20064;-80
2023/04/23 03:10:07;;;;;;;;;;;;;;;12.69;57.03;92167.59;2039193;70;20067;-80
2023/04/23 03:12:33;;;;;;;;;;;;;;;12.61;56.75;92178.53;2054681;69;20092;-80
2023/04/23 03:14:59;;;;;;;;;;;;;;;12.77;56.27;92187.00;2039112;70;20526;-80
2023/04/23 03:17:27;;;;;;;;;;;;;;;12.87;55.65;92191.00;2054459;69;20111;-80
2023/04/23 03:19:52;;;;;;;;;;;;;;;12.81;56.41;92190.75;2035960;70;20578;-80
2023/04/23 03:22:18;;;;;;;;;;;;;;;12.72;55.60;92164.22;2039031;69;20072;-80
2023/04/23 03:24:44;;;;;;;;;;;;;;;12.64;56.43;92185.72;2035825;70;20052;-80
2023/04/23 03:27:09;;;;;;;;;;;;;;;12.72;56.94;92192.47;2035817;70;20054;-79
2023/04/23 03:29:35;;;;;;;;;;;;;;;12.64;57.13;92174.44;2038908;70;20052;-80
2023/04/23 03:32:01;;;;;;;;;;;;;;;12.59;56.92;92175.63;2056629;69;20059;-77
2023/04/23 03:34:27;;;;;;;;;;;;;;;12.67;57.54;92173.88;2039455;69;20049;-79
2023/04/23 03:36:53;;;;;;;;;;;;;;;12.65;60.36;92168.16;2035907;70;20049;-79
2023/04/23 03:39:18;;;;;;;;;;;;;;;12.65;60.79;92170.97;2035686;70;20161;-78
2023/04/23 03:41:53;;;;;;;;;;;;;;;12.66;60.30;92163.97;2035733;70;20055;-78
2023/04/23 03:44:23;;;;;;;;;;;;;;;12.73;58.98;92151.56;2054541;69;20056;-78
2023/04/23 03:46:51;;;;;;;;;;;;;;;12.52;60.14;92149.22;2035798;70;20068;-78
2023/04/23 03:49:16;;;;;;;;;;;;;;;12.57;60.68;92150.13;2033149;70;20154;-80
2023/04/23 03:51:42;;;;;;;;;;;;;;;12.62;61.41;92152.50;2035758;70;20484;-79
2023/04/23 03:54:08;;;;;;;;;;;;;;;12.61;62.79;92155.97;2035677;70;20114;-79
2023/04/23 03:56:37;;;;;;;;;;;;;;;12.60;63.19;92163.69;2035715;70;20151;-80
2023/04/23 03:59:16;;;;;;;;;;;;;;;12.49;63.91;92164.59;2035843;70;20079;-78
2023/04/23 04:01:43;;;;;;;;;;;;;;;12.22;62.87;92162.66;2035615;70;20056;-79
2023/04/23 04:04:08;;;;;;;;;;;;;;;12.43;62.95;92159.41;2038877;70;20079;-79
2023/04/23 04:06:35;;;;;;;;;;;;;;;12.40;63.17;92166.31;2032917;70;20055;-78
2023/04/23 04:09:00;;;;;;;;;;;;;;;12.41;63.83;92167.06;2057775;69;20050;-80
2023/04/23 04:11:26;;;;;;;;;;;;;;;12.36;64.47;92171.06;2038763;69;20145;-79
2023/04/23 04:13:52;;;;;;;;;;;;;;;12.43;63.83;92164.34;2038934;69;20150;-80
2023/04/23 04:16:17;;;;;;;;;;;;;;;12.38;64.05;92166.25;2038976;70;20434;-79
2023/04/23 04:18:43;;;;;;;;;;;;;;;12.38;65.27;92166.25;2039192;70;20109;-79
2023/04/23 04:21:08;;;;;;;;;;;;;;;12.56;63.83;92168.44;2040389;70;20103;-75
2023/04/23 04:23:34;;;;;;;;;;;;;;;12.56;63.30;92163.53;2042675;70;20429;-79
2023/04/23 04:26:00;;;;;;;;;;;;;;;12.46;64.42;92168.69;2042317;70;20051;-76
2023/04/23 04:28:25;;;;;;;;;;;;;;;12.01;66.30;92168.75;2039605;70;20060;-75
2023/04/23 04:30:56;;;;;;;;;;;;;;;12.26;64.00;92162.84;2039386;70;20532;-74
2023/04/23 04:33:24;;;;;;;;;;;;;;;12.29;65.62;92163.69;2039301;69;20160;-74
2023/04/23 04:35:50;;;;;;;;;;;;;;;12.33;65.04;92163.88;2038798;70;20150;-76
2023/04/23 04:38:15;;;;;;;;;;;;;;;12.34;64.92;92168.88;2039030;70;20147;-73
2023/04/23 04:40:41;;;;;;;;;;;;;;;12.38;65.07;92162.69;2038960;70;20063;-80
2023/04/23 04:43:06;;;;;;;;;;;;;;;12.38;64.75;92163.41;2038812;70;20044;-77
2023/04/23 04:45:32;;;;;;;;;;;;;;;12.28;65.71;92168.59;2039017;69;20048;-78
2023/04/23 04:47:57;;;;;;;;;;;;;;;12.25;66.57;92166.31;2038854;70;20087;-78
2023/04/23 04:50:23;;;;;;;;;;;;;;;12.30;65.25;92159.50;2035651;70;20077;-75
2023/04/23 04:52:49;;;;;;;;;;;;;;;12.38;64.81;92162.69;2038807;70;20071;-80
2023/04/23 04:55:14;;;;;;;;;;;;;;;12.51;64.16;92161.88;2038668;70;20126;-78
2023/04/23 05:01:09;;;;;;;;;;;;;;;12.42;65.18;92174.19;2038824;70;20050;-79
2023/04/23 05:03:35;;;;;;;;;;;;;;;12.31;65.75;92178.59;2038779;70;20485;-79
2023/04/23 05:06:01;;;;;;;;;;;;;;;12.43;64.96;92184.81;2039136;70;20056;-79
2023/04/23 05:11:55;;;;;;;;;;;;;;;12.62;65.09;92177.16;2038924;70;20139;-80
2023/04/23 05:14:21;;;;;;;;;;;;;;;12.59;65.41;92178.44;2038838;70;20044;-77
2023/04/23 05:16:46;;;;;;;;;;;;;;;12.73;65.91;92179.78;2038831;70;20056;-80
2023/04/23 05:19:12;;;;;;;;;;;;;;;12.70;65.69;92183.19;2041209;70;20044;-75
2023/04/23 05:21:37;;;;;;;;;;;;;;;12.79;66.18;92184.28;2042697;70;20080;-78
2023/04/23 05:24:03;;;;;;;;;;;;;;;13.03;64.98;92191.00;2039838;70;20048;-78
2023/04/23 05:26:28;;;;;;;;;;;;;;;12.92;64.39;92191.91;2038833;70;20044;-77
2023/04/23 05:28:54;;;;;;;;;;;;;;;12.71;65.53;92182.53;2038834;70;20155;-77
2023/04/23 05:31:19;;;;;;;;;;;;;;;12.71;64.92;92185.38;2038690;70;20508;-73
2023/04/23 05:33:46;;;;;;;;;;;;;;;12.72;64.66;92186.09;2038779;70;20083;-79
2023/04/23 05:36:11;;;;;;;;;;;;;;;12.87;63.11;92191.00;2038771;70;20103;-81
2023/04/23 05:38:37;;;;;;;;;;;;;;;12.86;62.36;92183.16;2038757;70;20476;-80
2023/04/23 05:41:02;;;;;;;;;;;;;;;12.93;64.94;92179.97;2038706;70;20103;-79
2023/04/23 05:43:28;;;;;;;;;;;;;;;13.01;64.30;92184.50;2038577;70;20407;-80
2023/04/23 05:45:53;;;;;;;;;;;;;;;13.07;64.04;92191.16;2038751;70;20055;-77
2023/04/23 05:48:19;;;;;;;;;;;;;;;13.03;63.60;92188.16;2038626;70;20159;-80
2023/04/23 05:54:13;;;;;;;;;;;;;;;13.16;62.55;92189.44;2038827;70;20110;-80
2023/04/23 05:56:38;;;;;;;;;;;;;;;13.09;63.47;92188.41;2035475;70;20088;-79
2023/04/23 05:59:05;;;;;;;;;;;;;;;13.31;62.65;92185.84;2038490;70;20147;-79
2023/04/23 06:01:31;;;;;;;;;;;;;;;13.45;62.10;92189.28;2039723;70;20091;-79
2023/04/23 06:03:56;;;;;;;;;;;;;;;13.42;62.89;92187.75;2040258;70;20084;-81
2023/04/23 06:06:22;;;;;;;;;;;;;;;13.34;63.28;92184.59;2036619;70;20083;-80
2023/04/23 06:08:49;;;;;;;;;;;;;;;12.96;66.30;92181.50;2039796;70;20511;-79
2023/04/23 06:11:15;;;;;;;;;;;;;;;13.20;65.37;92184.69;2039816;69;20059;-77
2023/04/23 06:13:41;;;;;;;;;;;;;;;13.42;64.47;92189.81;2039991;70;20052;-73
2023/04/23 06:16:07;;;;;;;;;;;;;;;13.30;64.41;92186.50;2039605;70;20052;-80
2023/04/23 06:18:33;;;;;;;;;;;;;;;12.61;65.93;92190.56;2039680;70;20052;-80
2023/04/23 06:21:03;;;;;;;;;;;;;;;12.70;65.93;92181.09;2039651;70;20080;-81
2023/04/23 06:23:30;;;;;;;;;;;;;;;13.06;65.35;92191.81;2039740;70;20086;-81
2023/04/23 06:25:56;;;;;;;;;;;;;;;13.42;64.60;92184.19;2039664;70;20155;-79
2023/04/23 06:28:21;;;;;;;;;;;;;;;13.55;64.14;92172.00;2039654;70;20472;-80
2023/04/23 06:31:10;;;;;;;;;;;;;;;13.69;63.83;92175.41;2039652;69;20130;-79
2023/04/23 06:33:36;;;;;;;;;;;;;;;13.65;63.42;92171.69;2036454;70;20484;-80
2023/04/23 06:36:01;;;;;;;;;;;;;;;13.61;64.51;92168.72;2039583;70;20048;-80
2023/04/23 06:38:27;;;;;;;;;;;;;;;13.89;61.31;92172.69;2039847;70;20496;-80
2023/04/23 06:40:52;;;;;;;;;;;;;;;13.22;63.89;92170.66;2039847;70;20044;-80
2023/04/23 06:43:18;;;;;;;;;;;;;;;13.11;63.91;92168.03;2039645;70;20151;-79
2023/04/23 06:46:15;;;;;;;;;;;;;;;13.27;63.58;92171.56;2041775;70;20424;-76
2023/04/23 06:48:41;;;;;;;;;;;;;;;13.85;61.63;92171.81;2039773;70;20048;-80
2023/04/23 06:51:06;;;;;;;;;;;;;;;14.21;59.26;92173.25;2036524;70;20067;-80
2023/04/23 06:53:32;;;;;;;;;;;;;;;14.33;60.39;92172.97;2039730;70;20044;-75
2023/04/23 06:55:57;;;;;;;;;;;;;;;14.25;60.79;92175.50;2039839;69;20563;-78
2023/04/23 06:58:29;;;;;;;;;;;;;;;14.62;60.07;92169.16;2039780;70;20063;-80
2023/04/23 07:01:13;;;;;;;;;;;;;;;15.14;57.99;92168.91;2039748;70;20056;-79
2023/04/23 07:03:42;;;;;;;;;;;;;;;15.14;57.63;92169.63;2039817;70;20056;-80
2023/04/23 07:06:08;;;;;;;;;;;;;;;15.32;57.62;92160.31;2040129;70;20155;-80
2023/04/23 07:08:34;;;;;;;;;;;;;;;15.50;55.80;92158.81;2040980;70;20562;-81
2023/04/23 07:11:00;;;;;;;;;;;;;;;15.90;56.05;92150.22;2040019;70;20508;-77
2023/04/23 07:13:26;;;;;;;;;;;;;;;16.18;52.05;92149.69;2038868;70;20052;-75
2023/04/23 07:15:51;;;;;;;;;;;;;;;16.37;50.19;92137.50;2035703;70;20048;-77
2023/04/23 07:18:16;;;;;;;;;;;;;;;16.41;49.74;92140.47;2038825;70;20481;-74
2023/04/23 07:20:42;;;;;;;;;;;;;;;16.84;49.52;92141.72;2039110;70;20496;-76
2023/04/23 07:23:09;;;;;;;;;;;;;;;16.85;48.54;92134.66;2058213;69;20054;-75
2023/04/23 07:25:34;;;;;;;;;;;;;;;16.92;47.64;92132.72;2058332;69;20042;-74
2023/04/23 07:28:00;;;;;;;;;;;;;;;17.33;48.39;92125.31;2058292;69;20133;-74
2023/04/23 07:30:26;;;;;;;;;;;;;;;17.57;46.69;92123.09;2058377;69;20054;-76
2023/04/23 07:32:52;;;;;;;;;;;;;;;17.86;46.18;92118.84;2058207;69;20053;-76
2023/04/23 07:35:17;;;;;;;;;;;;;;;17.91;45.85;92114.72;2035856;70;20048;-75
2023/04/23 07:37:42;;;;;;;;;;;;;;;18.15;44.94;92117.44;2035787;70;20450;-75
2023/04/23 07:40:08;;;;;;;;;;;;;;;18.49;45.74;92117.47;2039019;70;20059;-76
2023/04/23 07:42:33;;;;;;;;;;;;;;;18.89;46.21;92116.22;2057998;69;20138;-76
2023/04/23 07:44:59;;;;;;;;;;;;;;;18.92;44.50;92112.75;2058383;69;20422;-77
2023/04/23 07:47:25;;;;;;;;;;;;;;;18.58;44.55;92109.84;2058232;69;20133;-77
2023/04/23 07:49:50;;;;;;;;;;;;;;;18.93;43.54;92105.63;2035478;70;20088;-76
2023/04/23 07:52:16;;;;;;;;;;;;;;;18.33;44.95;92116.41;2038986;70;20051;-77
2023/04/23 07:54:41;;;;;;;;;;;;;;;18.98;44.55;92112.13;2038886;70;20137;-77
2023/04/23 07:57:07;;;;;;;;;;;;;;;19.00;44.60;92101.47;2038792;70;20122;-75
2023/04/23 07:59:32;;;;;;;;;;;;;;;19.56;44.16;92114.66;2058095;69;20489;-77
2023/04/23 08:01:58;;;;;;;;;;;;;;;19.23;44.08;92102.63;2057868;69;20050;-77
2023/04/23 08:04:23;;;;;;;;;;;;;;;19.65;44.03;92107.72;2058148;69;20141;-77
2023/04/23 08:06:49;;;;;;;;;;;;;;;19.44;42.94;92117.31;2058203;69;20521;-77
2023/04/23 08:09:14;;;;;;;;;;;;;;;19.91;42.98;92112.44;2058245;69;20061;-77
2023/04/23 08:11:40;;;;;;;;;;;;;;;20.48;42.19;92114.09;2058192;69;20149;-76
2023/04/23 08:14:05;;;;;;;;;;;;;;;20.43;42.75;92111.81;2058150;69;20054;-77
2023/04/23 08:16:31;;;;;;;;;;;;;;;20.85;40.31;92105.28;2058266;69;20085;-77
2023/04/23 08:18:58;;;;;;;;;;;;;;;20.39;41.00;92106.03;2057897;69;20042;-77
2023/04/23 08:21:25;;;;;;;;;;;;;;;20.07;41.18;92101.28;2058314;69;20086;-76
2023/04/23 08:23:51;;;;;;;;;;;;;;;18.93;42.07;92093.50;2039114;69;20521;-75
2023/04/23 08:26:17;;;;;;;;;;;;;;;18.88;42.75;92095.53;2061032;69;20499;-75
2023/04/23 08:28:42;;;;;;;;;;;;;;;19.08;42.52;92098.06;2040468;69;20433;-79
2023/04/23 08:31:08;;;;;;;;;;;;;;;19.64;42.16;92094.13;2058372;69;20660;-78
2023/04/23 08:33:33;;;;;;;;;;;;;;;20.41;41.57;92092.53;2038957;69;20091;-78
2023/04/23 08:35:59;;;;;;;;;;;;;;;19.66;42.18;92089.19;2039166;70;20115;-78
2023/04/23 08:38:24;;;;;;;;;;;;;;;20.19;41.89;92089.31;2038885;70;20063;-78
2023/04/23 08:40:53;;;;;;;;;;;;;;;20.02;41.09;92091.94;2038873;70;20064;-78
2023/04/23 08:43:19;;;;;;;;;;;;;;;21.01;39.78;92096.94;2038792;70;20413;-75
2023/04/23 08:45:47;;;;;;;;;;;;;;;21.73;40.34;92087.03;2038790;70;20048;-76
2023/04/23 08:48:14;;;;;;;;;;;;;;;21.86;39.50;92085.72;2038746;70;20122;-76
2023/04/23 08:50:43;;;;;;;;;;;;;;;21.38;38.07;92086.66;2038759;70;20136;-74
2023/04/23 08:53:09;;;;;;;;;;;;;;;21.95;39.51;92081.50;2058196;69;20471;-74
2023/04/23 08:55:35;;;;;;;;;;;;;;;21.38;38.92;92080.22;2058535;69;20494;-75
2023/04/23 08:58:02;;;;;;;;;;;;;;;21.28;38.57;92080.78;2058041;69;20052;-76
2023/04/23 09:00:28;;;;;;;;;;;;;;;22.16;38.04;92073.09;2035738;70;20531;-76
2023/04/23 09:02:54;;;;;;;;;;;;;;;22.37;39.34;92068.94;2059570;69;20090;-77
2023/04/23 09:05:19;;;;;;;;;;;;;;;21.44;37.07;92074.53;2060452;69;20108;-76
2023/04/23 09:07:45;;;;;;;;;;;;;;;20.92;39.52;92064.63;2058126;69;20112;-77
2023/04/23 09:10:11;;;;;;;;;;;;;;;21.90;37.81;92062.09;2058212;69;20061;-76
2023/04/23 09:12:41;;;;;;;;;;;;;;;22.07;37.74;92060.81;2058141;69;20097;-76
2023/04/23 09:15:11;;;;;;;;;;;;;;;21.55;37.99;92061.78;2058055;69;20057;-76
2023/04/23 09:17:41;;;;;;;;;;;;;;;21.12;38.50;92058.44;2057902;69;20061;-77
2023/04/23 09:20:08;;;;;;;;;;;;;;;21.12;39.35;92057.69;2038712;69;20072;-75
2023/04/23 09:23:00;;;;;;;;;;;;;;;21.58;38.64;92046.06;2057877;69;20141;-74
2023/04/23 09:25:25;;;;;;;;;;;;;;;21.31;38.94;92054.38;2039137;70;20181;-76
2023/04/23 09:27:51;;;;;;;;;;;;;;;21.02;38.46;92046.88;2035417;70;20155;-77
2023/04/23 09:30:17;;;;;;;;;;;;;;;21.48;37.71;92037.38;2035456;70;20496;-75
2023/04/23 09:32:44;;;;;;;;;;;;;;;21.29;38.27;92040.00;2038696;70;20504;-75
2023/04/23 09:35:14;;;;;;;;;;;;;;;21.21;38.49;92034.22;2057945;69;20085;-77
2023/04/23 09:37:47;;;;;;;;;;;;;;;20.27;40.63;92035.16;2057758;69;20505;-75
2023/04/23 09:40:13;;;;;;;;;;;;;;;20.83;39.71;92030.91;2058073;69;20076;-76
2023/04/23 09:42:39;;;;;;;;;;;;;;;21.09;38.91;92030.50;2035556;70;20207;-75
2023/04/23 09:45:06;;;;;;;;;;;;;;;20.95;38.71;92026.06;2035435;70;20619;-74
2023/04/23 09:47:37;;;;;;;;;;;;;;;21.33;38.67;92025.06;2057689;69;20201;-76
2023/04/23 09:50:03;;;;;;;;;;;;;;;20.99;37.64;92019.66;2057946;69;20100;-76
2023/04/23 09:52:32;;;;;;;;;;;;;;;20.91;37.71;92022.44;2038808;69;20158;-76
2023/04/23 09:55:00;;;;;;;;;;;;;;;21.12;37.60;92012.66;2035543;70;20090;-77
2023/04/23 09:57:26;;;;;;;;;;;;;;;21.16;37.30;92012.69;2038654;70;20130;-76
2023/04/23 09:59:51;;;;;;;;;;;;;;;21.46;37.37;92000.84;2038665;70;20048;-76
2023/04/23 10:02:17;;;;;;;;;;;;;;;21.74;37.63;91991.78;2038529;70;20056;-76
2023/04/23 10:04:43;;;;;;;;;;;;;;;22.17;36.05;91988.53;2038651;70;20048;-75
2023/04/23 10:07:12;;;;;;;;;;;;;;;22.74;36.43;91983.84;2038683;69;20469;-77
2023/04/23 10:09:38;;;;;;;;;;;;;;;24.03;35.00;91987.72;2038570;70;20064;-76
2023/04/23 10:12:05;;;;;;;;;;;;;;;23.92;32.48;91971.91;2054168;69;20143;-77
2023/04/23 10:14:30;;;;;;;;;;;;;;;23.15;33.29;91971.81;2035340;70;20071;-76
2023/04/23 10:16:57;;;;;;;;;;;;;;;23.36;33.72;91970.41;2035094;70;20068;-74
2023/04/23 10:19:23;;;;;;;;;;;;;;;25.31;32.42;91975.13;2038646;70;20064;-76
2023/04/23 10:21:51;;;;;;;;;;;;;;;25.92;30.65;91961.78;2057756;69;20046;-76
2023/04/23 10:24:19;;;;;;;;;;;;;;;26.72;29.67;91958.88;2057748;69;20156;-75
2023/04/23 10:26:45;;;;;;;;;;;;;;;26.72;30.15;91956.72;2057876;69;20076;-75
2023/04/23 10:29:14;;;;;;;;;;;;;;;25.97;30.86;91955.25;2057825;69;20450;-75
2023/04/23 10:31:40;;;;;;;;;;;;;;;27.88;29.79;91950.88;2057702;69;20046;-76
2023/04/23 10:34:06;;;;;;;;;;;;;;;27.72;28.24;91946.06;2057693;69;20057;-76
2023/04/23 10:36:32;;;;;;;;;;;;;;;29.25;25.86;91946.97;2057584;69;20053;-76
2023/04/23 10:39:03;;;;;;;;;;;;;;;28.89;25.29;91942.59;2057686;69;20594;-76
2023/04/23 10:41:34;;;;;;;;;;;;;;;31.15;23.10;91939.47;2057887;69;20145;-75
2023/04/23 10:44:00;;;;;;;;;;;;;;;34.89;19.59;91938.75;2035515;70;20079;-75
2023/04/23 10:46:29;;;;;;;;;;;;;;;35.67;17.36;91947.78;2038532;70;20784;-76
2023/04/23 10:52:23;;;;;;;;;;;;;;;32.09;20.87;91927.97;2038931;70;20047;-76
2023/04/23 10:54:49;;;;;;;;;;;;;;;30.76;21.44;91923.13;2038921;70;20044;-75
2023/04/23 10:57:14;;;;;;;;;;;;;;;34.19;19.36;91931.44;2038954;70;20481;-76
2023/04/23 10:59:50;;;;;;;;;;;;;;;34.61;19.17;91926.78;2058103;69;20077;-75
2023/04/23 11:02:16;;;;;;;;;;;;;;;28.28;24.12;91909.72;2039054;69;20046;-75
2023/04/23 11:04:45;;;;;;;;;;;;;;;27.25;25.77;91904.06;2058290;69;20053;-75
2023/04/23 11:11:00;;;;;;;;;;;;;;;35.31;19.32;91915.03;2058339;69;20072;-76
2023/04/23 11:13:26;;;;;;;;;;;;;;;32.55;20.76;91901.72;2058280;69;20057;-74
2023/04/23 11:16:10;;;;;;;;;;;;;;;30.10;22.60;91897.94;2058236;69;20146;-75
2023/04/23 11:18:54;;;;;;;;;;;;;;;35.26;18.76;91908.66;2058311;69;20053;-75
2023/04/23 11:21:20;;;;;;;;;;;;;;;39.24;15.25;91911.50;2058378;69;20514;-77
2023/04/23 11:23:45;;;;;;;;;;;;;;;40.23;16.45;91903.22;2058469;69;20114;-76
2023/04/23 11:26:14;;;;;;;;;;;;;;;32.62;19.90;91889.09;2058559;69;20044;-77
2023/04/23 11:28:41;;;;;;;;;;;;;;;31.32;20.89;91872.88;2058285;69;20047;-77
2023/04/23 11:31:08;;;;;;;;;;;;;;;37.20;17.30;91878.09;2039032;69;20090;-78
2023/04/23 11:33:35;;;;;;;;;;;;;;;36.76;15.97;91882.53;2039050;70;20055;-77
2023/04/23 11:36:02;;;;;;;;;;;;;;;41.45;14.84;91897.38;2035737;70;20072;-76
2023/04/23 11:38:32;;;;;;;;;;;;;;;33.71;18.14;91867.63;2039402;70;20060;-77
2023/04/23 11:41:00;;;;;;;;;;;;;;;31.10;21.60;91865.50;2040362;70;20051;-77
2023/04/23 11:47:01;;;;;;;;;;;;;;;29.96;23.33;91842.41;2038872;70;20071;-75
2023/04/23 11:49:26;;;;;;;;;;;;;;;28.02;25.24;91843.63;2039070;70;20056;-75
2023/04/23 11:51:52;;;;;;;;;;;;;;;28.90;24.98;91830.34;2038950;69;20048;-75
2023/04/23 11:54:18;;;;;;;;;;;;;;;28.78;24.64;91829.16;2039091;70;20099;-75
2023/04/23 11:56:44;;;;;;;;;;;;;;;29.23;23.35;91833.25;2038781;70;20059;-76
2023/04/23 11:59:10;;;;;;;;;;;;;;;29.97;22.79;91824.28;2038712;70;20087;-75
2023/04/23 12:01:39;;;;;;;;;;;;;;;29.27;24.19;91810.69;2038874;70;20135;-75
2023/04/23 12:04:18;;;;;;;;;;;;;;;29.44;23.58;91813.22;2038869;70;20067;-74
2023/04/23 12:06:44;;;;;;;;;;;;;;;27.22;24.67;91807.38;2057973;69;20056;-73
2023/04/23 12:09:10;;;;;;;;;;;;;;;26.09;26.71;91801.59;2058038;69;20266;-73
2023/04/23 12:11:36;;;;;;;;;;;;;;;25.71;26.25;91797.63;2058103;69;20053;-74
2023/04/23 12:14:02;;;;;;;;;;;;;;;26.32;26.62;91796.28;2038864;69;20056;-74
2023/04/23 12:16:35;;;;;;;;;;;;;;;25.70;26.67;91798.34;2058053;69;20050;-75
2023/04/23 12:19:00;;;;;;;;;;;;;;;27.19;25.46;91797.28;2058059;69;20078;-74
2023/04/23 12:21:28;;;;;;;;;;;;;;;27.71;24.44;91783.41;2058251;69;20061;-74
2023/04/23 12:23:57;;;;;;;;;;;;;;;27.46;24.44;91788.91;2058051;69;20426;-76
2023/04/23 12:26:24;;;;;;;;;;;;;;;27.02;25.09;91778.75;2058358;69;20143;-74
2023/04/23 12:28:54;;;;;;;;;;;;;;;25.64;26.87;91773.19;2058396;69;20120;-75
2023/04/23 12:31:23;;;;;;;;;;;;;;;26.12;27.28;91777.06;2032868;70;20054;-75
2023/04/23 12:34:08;;;;;;;;;;;;;;;26.29;26.10;91786.91;2057898;69;20062;-75
2023/04/23 12:36:35;;;;;;;;;;;;;;;25.79;27.15;91773.78;2035743;70;20056;-74
2023/04/23 12:39:20;;;;;;;;;;;;;;;25.51;27.50;91777.66;2038774;70;20079;-74
2023/04/23 12:41:46;;;;;;;;;;;;;;;24.65;27.58;91778.31;2038897;70;20571;-74
2023/04/23 12:44:11;;;;;;;;;;;;;;;25.64;26.50;91773.19;2038902;70;20512;-75
2023/04/23 12:46:37;;;;;;;;;;;;;;;25.86;26.33;91775.16;2058043;69;20135;-76
2023/04/23 12:49:02;;;;;;;;;;;;;;;25.61;26.21;91766.03;2057987;69;20508;-75
2023/04/23 12:51:27;;;;;;;;;;;;;;;24.61;27.10;91766.81;2038958;69;20127;-75
2023/04/23 12:53:53;;;;;;;;;;;;;;;24.92;27.55;91764.44;2058243;69;20053;-74
2023/04/23 12:56:19;;;;;;;;;;;;;;;25.45;26.98;91757.56;2058187;69;20483;-75
2023/04/23 12:58:45;;;;;;;;;;;;;;;24.06;28.04;91761.34;2058090;69;20058;-75
2023/04/23 13:01:11;;;;;;;;;;;;;;;29.20;24.19;91763.06;2058015;69;20066;-75
2023/04/23 13:03:36;;;;;;;;;;;;;;;32.66;19.54;91762.22;2038817;70;20062;-75
2023/04/23 13:06:02;;;;;;;;;;;;;;;37.69;16.85;91766.88;2038806;70;20048;-75
2023/04/23 13:08:27;;;;;;;;;;;;;;;39.74;14.96;91777.41;2038768;70;20118;-74
2023/04/23 13:10:53;;;;;;;;;;;;;;;34.54;17.47;91752.50;2038575;70;20543;-75
2023/04/23 13:13:18;;;;;;;;;;;;;;;38.22;14.85;91749.88;2038808;70;20063;-78
2023/04/23 13:19:12;;;;;;;;;;;;;;;31.39;19.04;91722.94;2038854;70;20051;-73
2023/04/23 13:21:38;;;;;;;;;;;;;;;30.13;20.60;91722.28;2038967;70;20099;-75